Time;durP1;ratioP1;P1;durP2;ratioP2;P2;SDS_P1;SDS_P2;PMS_P1;PMS_P2;Temp;Humidity;BMP_temperature;BMP_pressure;BME280_temperature;BME280_humidity;BME280_pressure;Samples;Min_cycle;Max_cycle;Signal;HPM_P1;HPM_P2
2020/12/12 00:01:33;;;;;;;110.85;38.15;;;5.30;99.90;;;;;;5066319;28;20053;-66
2020/12/12 00:03:59;;;;;;;77.35;35.60;;;5.40;99.90;;;;;;5057922;28;20025;-66
2020/12/12 00:06:24;;;;;;;116.65;38.17;;;5.40;99.90;;;;;;5057107;28;20028;-65
2020/12/12 00:08:50;;;;;;;105.40;37.78;;;5.50;99.90;;;;;;5066666;28;20421;-69
2020/12/12 00:11:16;;;;;;;102.93;38.30;;;5.40;99.90;;;;;;5068735;28;20028;-65
2020/12/12 00:13:43;;;;;;;98.30;36.95;;;5.40;99.90;;;;;;5054672;28;20044;-65
2020/12/12 00:16:08;;;;;;;102.28;38.92;;;5.40;99.90;;;;;;5064612;28;20086;-65
2020/12/12 00:18:34;;;;;;;104.15;37.25;;;5.40;99.90;;;;;;5053554;28;20471;-64
2020/12/12 00:21:00;;;;;;;94.10;36.92;;;5.50;99.90;;;;;;5072653;28;20028;-65
2020/12/12 00:23:25;;;;;;;105.63;38.08;;;5.50;99.90;;;;;;5069956;28;20036;-67
2020/12/12 00:25:51;;;;;;;71.22;33.95;;;5.50;99.90;;;;;;5071500;28;20028;-66
2020/12/12 00:28:17;;;;;;;105.05;38.65;;;5.50;99.90;;;;;;5062814;28;20037;-65
2020/12/12 00:30:43;;;;;;;66.43;35.00;;;5.50;99.90;;;;;;5065829;28;20112;-65
2020/12/12 00:33:09;;;;;;;92.55;36.58;;;5.60;99.90;;;;;;5060452;28;20025;-65
2020/12/12 00:35:34;;;;;;;92.80;37.90;;;5.50;99.90;;;;;;5069950;28;20440;-65
2020/12/12 00:38:00;;;;;;;98.68;37.53;;;5.50;99.90;;;;;;5070857;28;20100;-65
2020/12/12 00:40:25;;;;;;;105.45;38.58;;;5.60;99.90;;;;;;5054394;28;20025;-67
2020/12/12 00:42:51;;;;;;;101.10;38.28;;;5.60;99.90;;;;;;5067223;28;20391;-65
2020/12/12 00:45:17;;;;;;;117.20;37.53;;;5.50;99.90;;;;;;5051291;28;20036;-65
2020/12/12 00:47:42;;;;;;;83.85;34.22;;;5.50;99.90;;;;;;5070596;28;20063;-65
2020/12/12 00:50:08;;;;;;;109.45;39.30;;;5.50;99.90;;;;;;5068857;28;20098;-65
2020/12/12 00:52:33;;;;;;;119.78;39.45;;;5.60;99.90;;;;;;5068604;28;20466;-64
2020/12/12 00:54:59;;;;;;;74.68;34.63;;;5.60;99.90;;;;;;5066858;28;20036;-66
2020/12/12 00:57:24;;;;;;;120.70;38.78;;;5.60;99.90;;;;;;5068921;28;20028;-63
2020/12/12 00:59:50;;;;;;;94.80;36.70;;;5.50;99.90;;;;;;5050386;28;20069;-66
2020/12/12 01:02:15;;;;;;;126.53;41.28;;;5.60;99.90;;;;;;5069260;28;20048;-65
2020/12/12 01:04:41;;;;;;;112.97;38.10;;;5.50;99.90;;;;;;5066792;28;20024;-65
2020/12/12 01:07:06;;;;;;;116.90;38.67;;;5.50;99.90;;;;;;5063822;28;20029;-65
2020/12/12 01:09:32;;;;;;;121.07;38.15;;;5.50;99.90;;;;;;5072275;28;20074;-65
2020/12/12 01:11:57;;;;;;;111.95;38.13;;;5.50;99.90;;;;;;5067398;28;20025;-66
2020/12/12 01:14:23;;;;;;;112.07;37.45;;;5.50;99.90;;;;;;5071434;28;20085;-65
2020/12/12 01:16:49;;;;;;;116.72;38.70;;;5.50;99.90;;;;;;5067196;28;20035;-65
2020/12/12 01:19:14;;;;;;;110.20;37.72;;;5.50;99.90;;;;;;5080649;28;20020;-65
2020/12/12 01:21:40;;;;;;;85.88;34.47;;;5.60;99.90;;;;;;5078246;28;20032;-64
2020/12/12 01:24:05;;;;;;;106.00;38.00;;;5.60;99.90;;;;;;5064836;28;20025;-65
2020/12/12 01:26:34;;;;;;;110.05;38.28;;;5.50;99.90;;;;;;5082665;28;20103;-66
2020/12/12 01:28:59;;;;;;;135.45;39.78;;;5.50;99.90;;;;;;5084120;28;20040;-65
2020/12/12 01:31:26;;;;;;;94.07;36.22;;;5.50;99.90;;;;;;5088858;28;20048;-64
2020/12/12 01:33:51;;;;;;;100.45;36.72;;;5.50;99.90;;;;;;5074329;28;20021;-65
2020/12/12 01:36:17;;;;;;;104.47;37.10;;;5.50;99.90;;;;;;5087327;28;20063;-65
2020/12/12 01:38:43;;;;;;;107.35;38.33;;;5.60;99.90;;;;;;5065959;28;20451;-65
2020/12/12 01:41:08;;;;;;;108.03;37.25;;;5.60;99.90;;;;;;5072453;28;20027;-66
2020/12/12 01:43:34;;;;;;;100.55;37.58;;;5.60;99.90;;;;;;5061883;28;20502;-65
2020/12/12 01:45:59;;;;;;;102.13;37.85;;;5.60;99.90;;;;;;5067438;28;20031;-67
2020/12/12 01:48:25;;;;;;;92.90;36.20;;;5.50;99.90;;;;;;5050835;28;20048;-65
2020/12/12 01:50:51;;;;;;;113.97;40.47;;;5.60;99.90;;;;;;5054446;28;20025;-65
2020/12/12 01:53:18;;;;;;;111.22;37.67;;;5.60;99.90;;;;;;5067717;28;20017;-64
2020/12/12 01:55:46;;;;;;;112.00;39.25;;;5.70;99.90;;;;;;5052073;28;20103;-66
2020/12/12 01:58:13;;;;;;;141.57;42.00;;;5.70;99.90;;;;;;5071958;28;20017;-66
2020/12/12 02:00:39;;;;;;;113.38;39.10;;;5.70;99.90;;;;;;5072289;28;20402;-66
2020/12/12 02:03:06;;;;;;;157.20;42.72;;;5.70;99.90;;;;;;5050966;28;20020;-65
2020/12/12 02:05:38;;;;;;;117.07;39.28;;;5.70;99.90;;;;;;5052091;28;20028;-64
2020/12/12 02:08:24;;;;;;;112.15;38.53;;;5.70;99.90;;;;;;5055542;28;20028;-64
2020/12/12 02:10:50;;;;;;;145.27;41.28;;;5.80;99.90;;;;;;5069957;28;20056;-66
2020/12/12 02:13:17;;;;;;;108.40;38.15;;;5.80;99.90;;;;;;5056998;28;20646;-65
2020/12/12 02:15:46;;;;;;;74.57;32.92;;;5.90;99.90;;;;;;5070670;28;20122;-66
2020/12/12 02:18:20;;;;;;;121.38;38.63;;;5.90;99.90;;;;;;5061553;28;20059;-64
2020/12/12 02:21:00;;;;;;;135.20;40.53;;;5.80;99.90;;;;;;5050257;28;20025;-65
2020/12/12 02:23:26;;;;;;;93.72;37.63;;;5.80;99.90;;;;;;5053937;28;20460;-65
2020/12/12 02:25:54;;;;;;;113.55;38.28;;;5.80;99.90;;;;;;5062813;28;20029;-65
2020/12/12 02:28:23;;;;;;;117.25;36.67;;;6.00;99.90;;;;;;5067610;28;20025;-66
2020/12/12 02:30:49;;;;;;;116.75;37.40;;;5.80;99.90;;;;;;5064020;28;20020;-65
2020/12/12 02:33:15;;;;;;;157.05;42.83;;;5.90;99.90;;;;;;5051408;28;20036;-64
2020/12/12 02:35:41;;;;;;;156.15;40.58;;;5.80;99.90;;;;;;5052438;28;20406;-66
2020/12/12 02:38:06;;;;;;;113.28;38.55;;;5.80;99.90;;;;;;5059980;28;20037;-65
2020/12/12 02:40:32;;;;;;;156.43;40.80;;;5.80;99.90;;;;;;5056802;28;20079;-65
2020/12/12 02:42:58;;;;;;;113.15;38.33;;;5.80;99.90;;;;;;5070535;28;20457;-64
2020/12/12 02:45:23;;;;;;;135.05;41.55;;;5.80;99.90;;;;;;5059888;28;20116;-64
2020/12/12 02:47:49;;;;;;;135.48;39.60;;;5.80;99.90;;;;;;5048666;28;20028;-65
2020/12/12 02:50:24;;;;;;;123.38;40.00;;;5.80;99.90;;;;;;5062432;28;20025;-65
2020/12/12 02:52:50;;;;;;;173.73;42.35;;;5.80;99.90;;;;;;5062562;28;20099;-65
2020/12/12 02:55:15;;;;;;;184.85;43.50;;;5.80;99.90;;;;;;5070789;28;20582;-67
2020/12/12 02:57:41;;;;;;;162.32;43.53;;;5.80;99.90;;;;;;5059283;28;20029;-65
2020/12/12 03:00:09;;;;;;;136.32;40.33;;;5.90;99.90;;;;;;5070261;28;20024;-65
2020/12/12 03:02:35;;;;;;;150.23;42.35;;;5.90;99.90;;;;;;5059386;28;20037;-64
2020/12/12 03:05:01;;;;;;;197.68;42.05;;;6.00;99.90;;;;;;5069376;28;20443;-65
2020/12/12 03:07:26;;;;;;;139.35;41.42;;;5.90;99.90;;;;;;5051929;28;20025;-65
2020/12/12 03:09:52;;;;;;;143.98;40.88;;;5.90;99.90;;;;;;5067101;28;20032;-66
2020/12/12 03:12:18;;;;;;;140.88;41.67;;;5.90;99.90;;;;;;5053110;28;20032;-65
2020/12/12 03:14:43;;;;;;;155.45;40.53;;;5.90;99.90;;;;;;5062631;28;20044;-64
2020/12/12 03:17:09;;;;;;;157.75;40.95;;;5.90;99.90;;;;;;5045476;28;20025;-65
2020/12/12 03:19:38;;;;;;;169.95;43.42;;;5.90;99.90;;;;;;5054187;28;20025;-64
2020/12/12 03:22:05;;;;;;;221.10;45.38;;;5.90;99.90;;;;;;5058421;28;20074;-65
2020/12/12 03:24:31;;;;;;;155.65;40.15;;;5.90;99.90;;;;;;5060238;28;20021;-66
2020/12/12 03:26:56;;;;;;;216.90;46.65;;;5.90;99.90;;;;;;5057479;28;20507;-65
2020/12/12 03:29:22;;;;;;;143.75;39.65;;;5.90;99.90;;;;;;5069871;28;20033;-67
2020/12/12 03:31:47;;;;;;;212.65;48.00;;;6.00;99.90;;;;;;5066721;28;20033;-64
2020/12/12 03:34:13;;;;;;;209.93;45.55;;;6.00;99.90;;;;;;5068034;28;20040;-64
2020/12/12 03:36:38;;;;;;;193.32;43.72;;;6.00;99.90;;;;;;5069668;28;20054;-64
2020/12/12 03:39:04;;;;;;;202.85;43.65;;;5.90;99.90;;;;;;5071427;28;20036;-65
2020/12/12 03:41:29;;;;;;;200.05;43.75;;;5.90;99.90;;;;;;5062670;28;20027;-65
2020/12/12 03:43:55;;;;;;;244.27;45.65;;;5.90;99.90;;;;;;5063560;28;20107;-64
2020/12/12 03:46:20;;;;;;;206.15;45.88;;;6.00;99.90;;;;;;5063106;28;20036;-65
2020/12/12 03:48:46;;;;;;;253.68;50.15;;;6.00;99.90;;;;;;5070680;28;20112;-65
2020/12/12 03:51:12;;;;;;;226.77;47.05;;;6.00;99.90;;;;;;5067365;28;20116;-68
2020/12/12 03:53:37;;;;;;;259.60;48.85;;;6.00;99.90;;;;;;5062634;28;20115;-65
2020/12/12 03:56:03;;;;;;;224.23;47.20;;;6.00;99.90;;;;;;5070061;28;20041;-64
2020/12/12 03:58:28;;;;;;;131.73;39.75;;;6.10;99.90;;;;;;5058118;28;20024;-65
2020/12/12 04:00:54;;;;;;;210.50;46.30;;;6.10;99.90;;;;;;5060404;28;20067;-65
2020/12/12 04:03:20;;;;;;;139.20;39.30;;;6.10;99.90;;;;;;5065944;28;20046;-66
2020/12/12 04:05:45;;;;;;;227.43;46.97;;;6.10;99.90;;;;;;5048289;28;20120;-65
2020/12/12 04:08:11;;;;;;;248.77;49.53;;;6.20;99.90;;;;;;5069689;28;20155;-65
2020/12/12 04:10:37;;;;;;;270.77;49.83;;;6.30;99.90;;;;;;5050973;28;20075;-65
2020/12/12 04:13:03;;;;;;;225.48;46.28;;;6.30;99.90;;;;;;5054535;28;20120;-67
2020/12/12 04:15:29;;;;;;;150.88;39.25;;;6.30;99.90;;;;;;5052551;28;20479;-65
2020/12/12 04:17:54;;;;;;;187.27;43.30;;;6.30;99.90;;;;;;5058808;28;20052;-66
2020/12/12 04:20:20;;;;;;;211.70;46.78;;;6.30;99.90;;;;;;5048662;28;20029;-65
2020/12/12 04:22:45;;;;;;;180.63;42.38;;;6.30;99.90;;;;;;5075211;28;20083;-65
2020/12/12 04:25:11;;;;;;;316.42;51.22;;;6.40;99.90;;;;;;5075378;28;20025;-65
2020/12/12 04:27:36;;;;;;;239.55;48.55;;;6.50;99.90;;;;;;5062243;28;20386;-65
2020/12/12 04:30:04;;;;;;;124.55;39.92;;;6.50;99.90;;;;;;5057958;28;20048;-65
2020/12/12 04:32:29;;;;;;;227.95;46.83;;;6.60;99.90;;;;;;5067702;28;20028;-65
2020/12/12 04:34:55;;;;;;;289.52;53.10;;;6.60;99.90;;;;;;5073068;28;20378;-65
2020/12/12 04:37:20;;;;;;;254.75;46.35;;;6.60;99.90;;;;;;5069468;28;20029;-66
2020/12/12 04:39:46;;;;;;;216.93;46.38;;;6.70;99.90;;;;;;5073548;28;20050;-66
2020/12/12 04:42:13;;;;;;;307.30;51.88;;;6.70;99.90;;;;;;5070401;28;20115;-66
2020/12/12 04:44:40;;;;;;;345.88;53.67;;;6.80;99.90;;;;;;5073505;28;20374;-66
2020/12/12 04:47:07;;;;;;;291.73;48.15;;;6.90;99.90;;;;;;5073349;28;20016;-67
2020/12/12 04:49:33;;;;;;;264.63;50.33;;;6.90;99.90;;;;;;5071133;28;20025;-65
2020/12/12 04:52:03;;;;;;;351.13;53.65;;;7.00;99.90;;;;;;5073428;28;20024;-66
2020/12/12 04:54:33;;;;;;;350.05;52.30;;;7.00;99.90;;;;;;5076536;28;20453;-66
2020/12/12 04:57:02;;;;;;;263.17;50.42;;;7.00;99.90;;;;;;5075896;28;20070;-67
2020/12/12 04:59:31;;;;;;;256.77;49.33;;;7.10;99.90;;;;;;5043730;28;20116;-65
2020/12/12 05:01:58;;;;;;;308.35;53.28;;;7.00;99.90;;;;;;5066613;28;20467;-65
2020/12/12 05:04:24;;;;;;;263.63;50.15;;;7.00;99.90;;;;;;5073964;28;20070;-65
2020/12/12 05:06:50;;;;;;;279.73;49.08;;;7.00;99.90;;;;;;5074577;28;20111;-65
2020/12/12 05:09:15;;;;;;;230.93;45.92;;;7.10;99.90;;;;;;5065682;28;20481;-65
2020/12/12 05:11:45;;;;;;;311.45;48.65;;;7.10;99.90;;;;;;5067705;28;20071;-66
2020/12/12 05:14:10;;;;;;;369.13;54.20;;;7.10;99.90;;;;;;5091441;22;20167;-60
2020/12/12 05:16:36;;;;;;;188.73;43.30;;;7.10;99.90;;;;;;5072537;28;20397;-62
2020/12/12 05:19:04;;;;;;;277.98;46.70;;;7.20;99.90;;;;;;5053539;28;20032;-59
2020/12/12 05:21:29;;;;;;;266.08;48.90;;;7.20;99.90;;;;;;5066946;28;20028;-61
2020/12/12 05:23:54;;;;;;;135.23;39.67;;;7.10;99.90;;;;;;5075486;28;20079;-60
2020/12/12 05:26:20;;;;;;;420.58;56.03;;;7.20;99.90;;;;;;5073795;28;20107;-59
2020/12/12 05:28:47;;;;;;;182.60;42.80;;;7.20;99.90;;;;;;5058426;28;20043;-59
2020/12/12 05:31:13;;;;;;;141.90;38.45;;;7.30;99.90;;;;;;5066198;28;20537;-60
2020/12/12 05:33:38;;;;;;;182.25;40.17;;;7.30;99.90;;;;;;5068942;28;20105;-61
2020/12/12 05:36:04;;;;;;;248.65;43.55;;;7.40;99.90;;;;;;5062307;28;20028;-61
2020/12/12 05:38:30;;;;;;;218.60;43.38;;;7.40;99.90;;;;;;5070172;28;20025;-62
2020/12/12 05:40:55;;;;;;;344.65;51.03;;;7.30;99.90;;;;;;5079492;28;20519;-59
2020/12/12 05:43:35;;;;;;;197.45;44.15;;;7.40;99.90;;;;;;5074849;28;20024;-60
2020/12/12 05:46:01;;;;;;;153.57;39.35;;;7.30;99.90;;;;;;5071639;28;20111;-60
2020/12/12 05:48:27;;;;;;;326.50;46.63;;;7.40;99.90;;;;;;5073124;28;20064;-59
2020/12/12 05:50:53;;;;;;;230.93;44.88;;;7.40;99.90;;;;;;5072125;28;20103;-60
2020/12/12 05:53:19;;;;;;;287.52;46.70;;;7.50;99.90;;;;;;5071036;28;20025;-60
2020/12/12 05:55:45;;;;;;;223.90;41.88;;;7.50;99.90;;;;;;5071343;28;20025;-60
2020/12/12 05:58:11;;;;;;;315.05;46.80;;;7.50;99.90;;;;;;5056441;28;20474;-60
2020/12/12 06:00:38;;;;;;;284.58;47.15;;;7.40;99.90;;;;;;5072392;28;20111;-60
2020/12/12 06:03:05;;;;;;;245.07;44.90;;;7.40;99.90;;;;;;5052853;28;20028;-60
2020/12/12 06:05:33;;;;;;;308.58;46.13;;;7.40;99.90;;;;;;5053889;28;20035;-61
2020/12/12 06:08:04;;;;;;;249.68;46.08;;;7.40;99.90;;;;;;5071889;28;20425;-60
2020/12/12 06:10:31;;;;;;;350.08;50.92;;;7.40;99.90;;;;;;5071191;28;20298;-61
2020/12/12 06:13:05;;;;;;;267.48;44.75;;;7.50;99.90;;;;;;5071533;28;20131;-61
2020/12/12 06:15:36;;;;;;;346.02;51.05;;;7.50;99.90;;;;;;5071822;28;20508;-61
2020/12/12 06:18:44;;;;;;;211.47;43.73;;;7.40;99.90;;;;;;5071949;28;20035;-61
2020/12/12 06:21:10;;;;;;;251.30;44.53;;;7.40;99.90;;;;;;5053167;28;20044;-60
2020/12/12 06:23:38;;;;;;;452.70;59.45;;;7.50;99.90;;;;;;5054290;28;20064;-60
2020/12/12 06:26:05;;;;;;;380.30;51.88;;;7.50;99.90;;;;;;5065117;28;20036;-60
2020/12/12 06:28:33;;;;;;;303.58;46.90;;;7.50;99.90;;;;;;5057495;28;20118;-60
2020/12/12 06:30:59;;;;;;;198.60;42.97;;;7.40;99.90;;;;;;5043297;28;20280;-60
2020/12/12 06:33:24;;;;;;;377.80;51.00;;;7.50;99.90;;;;;;5055158;28;20356;-58
2020/12/12 06:35:50;;;;;;;186.82;42.47;;;7.50;99.90;;;;;;5059082;28;20036;-60
2020/12/12 06:38:26;;;;;;;486.02;55.88;;;7.50;99.90;;;;;;5054673;28;20036;-60
2020/12/12 06:40:59;;;;;;;292.60;46.55;;;7.60;99.90;;;;;;5061406;28;20023;-60
2020/12/12 06:43:29;;;;;;;454.17;52.53;;;7.70;99.90;;;;;;5060511;28;20025;-60
2020/12/12 06:45:55;;;;;;;427.27;52.35;;;7.60;99.90;;;;;;5061910;28;20028;-60
2020/12/12 06:48:28;;;;;;;295.48;47.85;;;7.70;99.90;;;;;;5071974;28;20032;-60
2020/12/12 06:50:55;;;;;;;443.80;51.67;;;7.70;99.90;;;;;;5052195;28;20060;-60
2020/12/12 06:53:27;;;;;;;316.40;45.35;;;7.70;99.90;;;;;;5066370;28;20127;-60
2020/12/12 06:56:14;;;;;;;533.00;60.58;;;7.70;99.90;;;;;;5074091;28;20025;-60
2020/12/12 06:58:41;;;;;;;549.97;58.80;;;7.70;99.90;;;;;;5059624;28;20025;-60
2020/12/12 07:01:29;;;;;;;416.15;51.03;;;7.70;99.90;;;;;;5064596;28;20033;-60
2020/12/12 07:04:00;;;;;;;278.15;43.55;;;7.70;99.90;;;;;;5064396;28;20032;-61
2020/12/12 07:06:28;;;;;;;335.88;47.75;;;7.70;99.90;;;;;;5070432;28;20110;-61
2020/12/12 07:08:58;;;;;;;659.28;66.60;;;7.70;99.90;;;;;;5068926;28;20021;-59
2020/12/12 07:11:25;;;;;;;535.13;56.70;;;7.70;99.90;;;;;;5071498;28;20094;-59
2020/12/12 07:13:52;;;;;;;427.60;50.40;;;7.70;99.90;;;;;;5068425;28;20045;-59
2020/12/12 07:16:19;;;;;;;420.77;52.80;;;7.70;99.90;;;;;;5064037;28;20454;-60
2020/12/12 07:18:45;;;;;;;357.50;48.50;;;7.70;99.90;;;;;;5067391;28;20548;-60
2020/12/12 07:21:11;;;;;;;494.48;55.10;;;7.70;99.90;;;;;;5065222;28;20025;-59
2020/12/12 07:23:39;;;;;;;395.33;50.60;;;7.80;99.90;;;;;;5061636;28;20020;-60
2020/12/12 07:26:05;;;;;;;456.92;57.05;;;7.80;99.90;;;;;;5066325;28;20037;-61
2020/12/12 07:28:31;;;;;;;516.00;58.15;;;7.80;99.90;;;;;;5071537;28;20040;-60
2020/12/12 07:30:56;;;;;;;510.25;61.13;;;7.80;99.90;;;;;;5067805;28;20490;-61
2020/12/12 07:33:22;;;;;;;614.80;58.97;;;7.80;99.90;;;;;;5070353;28;20059;-61
2020/12/12 07:35:47;;;;;;;483.67;56.88;;;7.80;99.90;;;;;;5067059;28;20082;-61
2020/12/12 07:38:13;;;;;;;480.40;56.53;;;7.90;99.90;;;;;;5066749;28;20024;-61
2020/12/12 07:40:38;;;;;;;596.83;57.40;;;7.90;99.90;;;;;;5068434;28;20313;-61
2020/12/12 07:43:08;;;;;;;332.05;48.10;;;7.90;99.90;;;;;;5064744;28;20560;-61
2020/12/12 07:45:50;;;;;;;473.48;52.28;;;8.00;99.90;;;;;;5064503;28;20028;-61
2020/12/12 07:48:16;;;;;;;368.80;51.25;;;8.00;99.90;;;;;;5069828;28;20487;-61
2020/12/12 07:50:42;;;;;;;637.47;67.85;;;8.00;99.90;;;;;;5063760;28;20036;-60
2020/12/12 07:53:09;;;;;;;601.65;62.05;;;8.00;99.90;;;;;;5068301;28;20028;-61
2020/12/12 07:55:40;;;;;;;464.00;55.35;;;7.90;99.90;;;;;;5073552;28;20053;-60
2020/12/12 07:58:13;;;;;;;343.95;52.05;;;7.90;99.90;;;;;;5069630;28;20034;-61
2020/12/12 08:00:38;;;;;;;638.15;64.40;;;7.90;99.90;;;;;;5065649;28;20579;-60
2020/12/12 08:03:04;;;;;;;678.13;69.45;;;7.90;99.90;;;;;;5068521;28;20112;-60
2020/12/12 08:05:29;;;;;;;385.95;49.60;;;7.90;99.90;;;;;;5054722;28;20021;-61
2020/12/12 08:07:55;;;;;;;545.67;59.92;;;7.80;99.90;;;;;;5069579;28;20052;-60
2020/12/12 08:10:21;;;;;;;461.23;57.78;;;7.90;99.90;;;;;;5069453;28;20020;-61
2020/12/12 08:12:47;;;;;;;494.33;57.65;;;7.90;99.90;;;;;;5085089;28;20021;-60
2020/12/12 08:15:24;;;;;;;522.05;60.75;;;7.90;99.90;;;;;;5068645;28;20032;-61
2020/12/12 08:17:49;;;;;;;427.00;54.35;;;7.90;99.90;;;;;;5072555;28;20032;-61
2020/12/12 08:20:17;;;;;;;491.58;56.05;;;8.00;99.90;;;;;;5059585;28;20512;-60
2020/12/12 08:22:44;;;;;;;502.23;60.17;;;8.00;99.90;;;;;;5073102;28;20486;-60
2020/12/12 08:25:10;;;;;;;562.78;60.58;;;7.90;99.90;;;;;;5070341;28;20028;-61
2020/12/12 08:27:36;;;;;;;294.38;45.63;;;8.00;99.90;;;;;;5069066;28;20024;-60
2020/12/12 08:30:05;;;;;;;573.13;62.85;;;7.90;99.90;;;;;;5067604;28;20306;-62
2020/12/12 08:32:36;;;;;;;363.83;47.88;;;8.00;99.90;;;;;;5068893;28;20104;-61
2020/12/12 08:35:23;;;;;;;487.70;59.92;;;8.00;99.90;;;;;;5052538;28;20021;-61
2020/12/12 08:38:01;;;;;;;412.98;50.53;;;8.10;99.90;;;;;;5074725;28;20047;-60
2020/12/12 08:40:29;;;;;;;537.25;57.20;;;7.90;99.90;;;;;;5051541;28;20020;-60
2020/12/12 08:42:59;;;;;;;393.20;52.85;;;7.90;99.90;;;;;;5060835;28;20120;-61
2020/12/12 08:45:26;;;;;;;372.85;51.30;;;8.00;99.90;;;;;;5061297;28;20135;-61
2020/12/12 08:48:05;;;;;;;518.83;59.38;;;8.00;99.90;;;;;;5069275;28;20387;-60
2020/12/12 08:50:53;;;;;;;548.95;60.17;;;8.00;99.90;;;;;;5061991;28;20099;-62
2020/12/12 08:53:33;;;;;;;466.83;57.20;;;8.00;99.90;;;;;;5071142;28;20047;-62
2020/12/12 08:56:06;;;;;;;145.73;40.17;;;8.00;99.90;;;;;;5058603;28;20511;-60
2020/12/12 08:58:35;;;;;;;246.13;42.47;;;8.00;99.90;;;;;;5060549;28;20055;-59
2020/12/12 09:01:39;;;;;;;521.53;57.60;;;8.00;99.90;;;;;;5072344;28;20417;-61
2020/12/12 09:04:08;;;;;;;265.38;43.28;;;8.10;99.90;;;;;;5063695;28;20107;-61
2020/12/12 09:06:35;;;;;;;379.20;46.85;;;8.00;99.90;;;;;;5070480;28;20020;-61
2020/12/12 09:09:09;;;;;;;487.35;55.50;;;8.10;99.90;;;;;;5072131;28;20029;-63
2020/12/12 09:11:36;;;;;;;326.25;47.88;;;8.10;99.90;;;;;;5071974;28;20032;-61
2020/12/12 09:14:03;;;;;;;373.20;50.28;;;8.10;99.90;;;;;;5054097;28;20391;-61
2020/12/12 09:16:29;;;;;;;231.77;40.22;;;8.20;99.90;;;;;;5070964;28;20028;-60
2020/12/12 09:18:55;;;;;;;384.52;50.22;;;8.20;99.90;;;;;;5072595;28;20033;-62
2020/12/12 09:21:20;;;;;;;215.10;39.53;;;8.20;99.90;;;;;;5072601;28;20048;-62
2020/12/12 09:23:46;;;;;;;232.77;38.75;;;8.20;99.90;;;;;;5070806;28;20070;-61
2020/12/12 09:26:12;;;;;;;273.02;42.67;;;8.20;99.90;;;;;;5065508;28;20036;-61
2020/12/12 09:28:38;;;;;;;178.57;37.20;;;8.30;99.90;;;;;;5052945;28;20022;-60
2020/12/12 09:31:05;;;;;;;301.95;44.85;;;8.50;99.90;;;;;;5053630;28;20025;-60
2020/12/12 09:33:31;;;;;;;228.80;37.33;;;8.40;99.90;;;;;;5035112;28;20018;-59
2020/12/12 09:35:57;;;;;;;296.42;39.47;;;8.40;99.90;;;;;;5062020;28;20541;-61
2020/12/12 09:38:22;;;;;;;236.35;39.80;;;8.40;99.90;;;;;;5068256;28;20120;-61
2020/12/12 09:40:51;;;;;;;195.20;36.03;;;8.40;99.90;;;;;;5069485;28;20371;-60
2020/12/12 09:43:18;;;;;;;135.98;32.65;;;8.40;99.90;;;;;;5072378;28;20039;-61
2020/12/12 09:45:45;;;;;;;251.95;40.85;;;8.40;99.90;;;;;;5072093;28;20027;-61
2020/12/12 09:48:11;;;;;;;220.07;39.72;;;8.40;99.90;;;;;;5053071;28;20028;-61
2020/12/12 09:50:37;;;;;;;209.27;37.97;;;8.50;99.90;;;;;;5066050;28;20526;-59
2020/12/12 09:53:04;;;;;;;251.48;40.33;;;8.40;99.90;;;;;;5065475;28;20357;-61
2020/12/12 09:55:31;;;;;;;264.63;40.17;;;8.50;99.90;;;;;;5052806;28;20021;-61
2020/12/12 09:57:57;;;;;;;229.38;40.28;;;8.40;99.90;;;;;;5050752;28;20116;-61
2020/12/12 10:00:24;;;;;;;190.98;36.65;;;8.50;99.90;;;;;;5070355;28;20020;-61
2020/12/12 10:02:49;;;;;;;189.75;36.55;;;8.60;99.90;;;;;;5066750;28;20036;-60
2020/12/12 10:05:15;;;;;;;230.65;39.53;;;8.70;99.90;;;;;;5070721;28;20029;-60
2020/12/12 10:07:40;;;;;;;185.82;36.95;;;8.70;99.90;;;;;;5069344;28;20478;-61
2020/12/12 10:10:06;;;;;;;204.70;37.47;;;8.70;99.90;;;;;;5068697;28;21078;-61
2020/12/12 10:12:32;;;;;;;170.73;34.72;;;8.60;99.90;;;;;;5067252;28;20028;-60
2020/12/12 10:14:57;;;;;;;156.70;34.40;;;8.70;99.90;;;;;;5068463;28;20730;-60
2020/12/12 10:17:23;;;;;;;159.77;34.20;;;8.70;99.90;;;;;;5069646;28;20099;-61
2020/12/12 10:19:48;;;;;;;187.70;38.22;;;8.70;99.90;;;;;;5057081;28;20095;-60
2020/12/12 10:22:14;;;;;;;181.20;35.47;;;8.70;99.90;;;;;;5049858;28;20021;-60
2020/12/12 10:24:39;;;;;;;164.95;34.55;;;8.70;99.90;;;;;;5054318;28;20021;-60
2020/12/12 10:27:05;;;;;;;154.18;33.42;;;8.70;99.90;;;;;;5058296;28;20119;-60
2020/12/12 10:29:30;;;;;;;152.10;34.13;;;8.80;99.90;;;;;;5057620;28;20352;-60
2020/12/12 10:31:56;;;;;;;100.72;30.88;;;8.80;99.90;;;;;;5066356;28;20044;-61
2020/12/12 10:34:21;;;;;;;166.98;34.90;;;8.80;99.90;;;;;;5059647;28;20025;-60
2020/12/12 10:36:47;;;;;;;181.35;37.17;;;8.90;99.90;;;;;;5070407;28;20524;-60
2020/12/12 10:39:13;;;;;;;152.90;33.78;;;8.90;99.90;;;;;;5058639;28;20060;-62
2020/12/12 10:41:38;;;;;;;164.50;35.00;;;8.80;99.90;;;;;;5050830;28;20431;-62
2020/12/12 10:44:04;;;;;;;123.70;32.45;;;8.90;99.90;;;;;;5064330;28;20070;-62
2020/12/12 10:46:30;;;;;;;171.80;36.63;;;8.80;99.90;;;;;;5067032;28;20028;-60
2020/12/12 10:48:56;;;;;;;153.27;35.92;;;8.90;99.90;;;;;;5044678;28;20025;-61
2020/12/12 10:51:21;;;;;;;131.05;34.60;;;8.90;99.90;;;;;;5059012;28;20017;-62
2020/12/12 10:53:49;;;;;;;153.10;35.60;;;8.90;99.90;;;;;;5069067;28;20016;-59
2020/12/12 10:56:14;;;;;;;167.60;37.00;;;8.90;99.90;;;;;;5064294;28;20445;-62
2020/12/12 10:58:40;;;;;;;125.00;34.92;;;9.00;99.90;;;;;;5064251;28;20023;-63
2020/12/12 11:01:05;;;;;;;140.95;35.22;;;9.10;99.90;;;;;;5068914;28;20034;-60
2020/12/12 11:03:31;;;;;;;131.27;35.40;;;9.30;99.90;;;;;;5068705;28;20410;-64
2020/12/12 11:05:56;;;;;;;120.03;33.50;;;9.20;99.90;;;;;;5061426;28;20028;-62
2020/12/12 11:08:22;;;;;;;152.85;38.08;;;9.20;99.90;;;;;;5066202;28;20028;-60
2020/12/12 11:10:48;;;;;;;157.70;36.35;;;9.10;99.90;;;;;;5063406;28;20509;-60
2020/12/12 11:13:13;;;;;;;122.10;34.53;;;9.20;99.90;;;;;;5076888;23;20042;-67
2020/12/12 11:15:40;;;;;;;131.48;34.45;;;9.10;99.90;;;;;;5039727;28;20033;-66
2020/12/12 11:18:06;;;;;;;141.27;36.40;;;9.10;99.90;;;;;;5052571;28;20013;-68
2020/12/12 11:20:32;;;;;;;133.40;34.22;;;9.20;99.90;;;;;;5058889;28;20013;-65
2020/12/12 11:22:57;;;;;;;144.50;36.50;;;9.10;99.90;;;;;;5063730;28;20045;-66
2020/12/12 11:25:23;;;;;;;123.97;35.38;;;9.20;99.90;;;;;;5049952;28;20407;-65
2020/12/12 11:27:49;;;;;;;122.50;35.38;;;9.20;99.90;;;;;;5045605;28;20099;-66
2020/12/12 11:30:17;;;;;;;145.70;37.33;;;9.20;99.90;;;;;;5041377;28;20013;-65
2020/12/12 11:32:43;;;;;;;151.65;34.42;;;9.10;99.90;;;;;;5044969;28;20083;-64
2020/12/12 11:47:41;;;;;;;132.68;33.30;;;9.20;99.90;;;;;;5048129;28;20021;-65
2020/12/12 11:50:07;;;;;;;121.28;36.75;;;9.30;99.90;;;;;;5049447;28;20387;-66
2020/12/12 11:52:38;;;;;;;147.40;37.25;;;9.40;99.90;;;;;;5037070;28;20115;-66
2020/12/12 11:55:04;;;;;;;120.15;36.03;;;9.40;99.90;;;;;;5045916;28;20029;-67
2020/12/12 11:57:31;;;;;;;126.25;35.08;;;9.40;99.90;;;;;;5043366;28;20035;-65
2020/12/12 11:59:58;;;;;;;125.13;37.45;;;9.40;99.90;;;;;;5039472;28;20033;-66
2020/12/12 12:02:24;;;;;;;76.50;31.05;;;9.50;99.90;;;;;;5052083;28;20104;-65
2020/12/12 12:04:52;;;;;;;114.85;35.20;;;9.60;99.90;;;;;;5044220;28;20064;-66
2020/12/12 12:07:17;;;;;;;108.82;34.30;;;9.60;99.90;;;;;;5039972;28;20021;-65
2020/12/12 12:09:46;;;;;;;110.68;34.85;;;9.60;99.90;;;;;;5042609;28;20032;-66
2020/12/12 12:12:11;;;;;;;116.72;35.45;;;9.60;99.90;;;;;;5047845;28;20082;-66
2020/12/12 12:14:37;;;;;;;95.95;32.15;;;9.70;99.90;;;;;;5037783;28;20033;-66
2020/12/12 12:17:03;;;;;;;87.28;31.00;;;9.70;99.90;;;;;;5045593;28;20057;-66
2020/12/12 12:19:28;;;;;;;105.35;33.10;;;9.70;99.90;;;;;;5048722;28;20130;-66
2020/12/12 12:21:54;;;;;;;98.68;32.35;;;9.60;99.90;;;;;;5045532;28;20021;-65
2020/12/12 12:24:21;;;;;;;105.03;33.60;;;9.60;99.90;;;;;;5042802;28;20036;-66
2020/12/12 12:26:48;;;;;;;105.38;34.05;;;9.70;99.90;;;;;;5044520;28;20026;-66
2020/12/12 12:29:15;;;;;;;95.25;32.70;;;9.60;99.90;;;;;;5040093;28;20096;-65
2020/12/12 12:31:42;;;;;;;94.55;33.00;;;9.60;99.90;;;;;;5034719;28;20454;-65
2020/12/12 12:34:08;;;;;;;105.38;33.00;;;9.60;99.90;;;;;;5050226;28;20021;-65
2020/12/12 12:36:34;;;;;;;96.28;31.65;;;9.70;99.90;;;;;;5048452;28;20028;-66
2020/12/12 12:39:01;;;;;;;92.55;31.15;;;9.70;99.90;;;;;;5047321;28;20105;-67
2020/12/12 12:41:28;;;;;;;86.15;30.48;;;9.60;99.90;;;;;;5050040;28;20052;-67